createdAt,value
2017-07-18T00:00:57.262Z,0
2017-07-18T00:02:12.773Z,0
2017-07-18T00:03:28.262Z,0
2017-07-18T00:04:43.979Z,0
2017-07-18T00:05:59.463Z,0
2017-07-18T00:07:14.927Z,0
2017-07-18T00:08:43.995Z,0
2017-07-18T00:09:59.847Z,0
2017-07-18T00:11:15.306Z,0
2017-07-18T00:12:30.399Z,0
2017-07-18T00:13:45.848Z,0
2017-07-18T00:15:01.527Z,0
2017-07-18T00:16:16.945Z,0
2017-07-18T00:17:32.421Z,0
2017-07-18T00:18:47.922Z,0
2017-07-18T00:20:03.617Z,0
2017-07-18T00:21:19.513Z,0
2017-07-18T00:22:34.973Z,0
2017-07-18T00:23:50.417Z,0
2017-07-18T00:25:06.211Z,0
2017-07-18T00:26:21.695Z,0
2017-07-18T00:27:37.182Z,0
2017-07-18T00:28:52.652Z,0
2017-07-18T00:30:21.947Z,0
2017-07-18T00:31:37.413Z,0
2017-07-18T00:32:51.535Z,0
2017-07-18T00:34:05.694Z,0
2017-07-18T00:35:21.401Z,0
2017-07-18T00:36:36.890Z,0
2017-07-18T00:37:52.523Z,0
2017-07-18T00:39:07.961Z,0
2017-07-18T00:40:23.679Z,0
2017-07-18T00:41:39.089Z,0
2017-07-18T00:42:53.331Z,0
2017-07-18T00:44:07.492Z,0
2017-07-18T00:45:23.146Z,0
2017-07-18T00:46:38.603Z,0
2017-07-18T00:47:54.055Z,0
2017-07-18T00:49:09.526Z,0
2017-07-18T00:50:25.207Z,0
2017-07-18T00:51:40.664Z,0
2017-07-18T00:52:56.363Z,0
2017-07-18T00:54:11.792Z,0
2017-07-18T00:55:27.443Z,0
2017-07-18T00:56:42.935Z,0
2017-07-18T00:57:58.382Z,0
2017-07-18T00:59:13.808Z,0
2017-07-18T01:00:29.485Z,0
2017-07-18T01:01:44.951Z,0
2017-07-18T01:03:00.356Z,0
2017-07-18T01:04:15.797Z,0
2017-07-18T01:05:31.703Z,0
2017-07-18T01:06:47.165Z,0
2017-07-18T01:08:02.698Z,0
2017-07-18T01:09:18.148Z,0
2017-07-18T01:10:33.826Z,0
2017-07-18T01:11:49.476Z,0
2017-07-18T01:13:03.644Z,0
2017-07-18T01:14:19.125Z,0
2017-07-18T01:15:34.857Z,0
2017-07-18T01:16:50.328Z,0
2017-07-18T01:18:05.775Z,0
2017-07-18T01:19:20.109Z,0
2017-07-18T01:20:49.254Z,0
2017-07-18T01:22:04.703Z,0
2017-07-18T01:23:20.103Z,0
2017-07-18T01:24:35.548Z,0
2017-07-18T01:25:51.314Z,0
2017-07-18T01:27:07.077Z,0
2017-07-18T01:28:22.580Z,0
2017-07-18T01:29:38.032Z,0
2017-07-18T01:30:54.131Z,0
2017-07-18T01:32:09.608Z,0
2017-07-18T01:33:25.044Z,0
2017-07-18T01:34:40.551Z,0
2017-07-18T01:35:56.246Z,0
2017-07-18T01:37:11.711Z,0
2017-07-18T01:38:25.893Z,0
2017-07-18T01:39:41.547Z,0
2017-07-18T01:40:57.233Z,0
2017-07-18T01:42:11.260Z,0
2017-07-18T01:43:57.582Z,0
2017-07-18T01:45:13.030Z,0
2017-07-18T01:46:28.755Z,0
2017-07-18T01:47:44.316Z,0
2017-07-18T01:48:59.837Z,0
2017-07-18T01:50:15.257Z,0
2017-07-18T01:51:31.089Z,0
2017-07-18T01:52:46.561Z,0
2017-07-18T01:54:02.031Z,0
2017-07-18T01:55:15.780Z,0
2017-07-18T01:56:31.509Z,0
2017-07-18T01:57:47.011Z,0
2017-07-18T01:59:02.520Z,0
2017-07-18T02:00:17.971Z,0
2017-07-18T02:01:33.670Z,0
2017-07-18T02:02:49.129Z,0
2017-07-18T02:04:04.637Z,0
2017-07-18T02:05:18.783Z,0
2017-07-18T02:06:34.752Z,0
2017-07-18T02:07:50.380Z,0
2017-07-18T02:09:05.823Z,0
2017-07-18T02:10:21.282Z,0
2017-07-18T02:11:36.633Z,0
2017-07-18T02:12:52.282Z,0
2017-07-18T02:14:06.365Z,0
2017-07-18T02:15:21.813Z,0
2017-07-18T02:16:37.511Z,0
2017-07-18T02:17:51.693Z,0
2017-07-18T02:19:07.228Z,0
2017-07-18T02:20:22.725Z,0
2017-07-18T02:21:37.065Z,0
2017-07-18T02:22:52.441Z,0
2017-07-18T02:24:07.887Z,0
2017-07-18T02:25:23.331Z,0
2017-07-18T02:26:39.064Z,0
2017-07-18T02:27:54.703Z,0
2017-07-18T02:29:10.148Z,0
2017-07-18T02:30:24.345Z,0
2017-07-18T02:31:39.671Z,0
2017-07-18T02:32:55.174Z,0
2017-07-18T02:34:10.629Z,0
2017-07-18T02:35:26.141Z,0
2017-07-18T02:36:41.964Z,0
2017-07-18T02:37:57.618Z,0
2017-07-18T02:39:13.092Z,0
2017-07-18T02:40:28.639Z,0
2017-07-18T02:41:44.365Z,0
2017-07-18T02:42:59.813Z,0
2017-07-18T02:44:15.425Z,0
2017-07-18T02:45:30.609Z,0
2017-07-18T02:46:46.371Z,0
2017-07-18T02:48:01.833Z,0
2017-07-18T02:49:17.318Z,0
2017-07-18T02:50:32.940Z,0
2017-07-18T02:51:48.688Z,0
2017-07-18T02:53:04.119Z,0
2017-07-18T02:54:19.594Z,0
2017-07-18T02:55:35.000Z,0
2017-07-18T02:56:50.934Z,0
2017-07-18T02:58:06.380Z,0
2017-07-18T02:59:21.973Z,0
2017-07-18T03:00:37.772Z,0
2017-07-18T03:01:53.671Z,0
2017-07-18T03:03:09.147Z,0
2017-07-18T03:04:24.698Z,0
2017-07-18T03:05:40.165Z,0
2017-07-18T03:06:55.875Z,5
2017-07-18T03:08:11.339Z,5
2017-07-18T03:09:26.784Z,5
2017-07-18T03:10:42.379Z,5
2017-07-18T03:11:58.240Z,5
2017-07-18T03:13:13.544Z,5
2017-07-18T03:14:29.422Z,5
2017-07-18T03:15:44.850Z,10
2017-07-18T03:17:00.489Z,10
2017-07-18T03:18:14.689Z,10
2017-07-18T03:19:30.332Z,10
2017-07-18T03:20:44.724Z,15
2017-07-18T03:22:00.630Z,15
2017-07-18T03:23:15.721Z,15
2017-07-18T03:24:29.717Z,15
2017-07-18T03:25:45.169Z,20
2017-07-18T03:26:59.774Z,20
2017-07-18T03:28:15.216Z,20
2017-07-18T03:29:30.799Z,20
2017-07-18T03:30:44.969Z,25
2017-07-18T03:32:00.894Z,25
2017-07-18T03:33:16.046Z,25
2017-07-18T03:34:31.553Z,30
2017-07-18T03:35:47.402Z,30
2017-07-18T03:37:03.194Z,30
2017-07-18T03:38:16.098Z,30
2017-07-18T03:39:31.566Z,35
2017-07-18T03:40:47.093Z,35
2017-07-18T03:42:02.802Z,35
2017-07-18T03:43:18.277Z,40
2017-07-18T03:44:33.810Z,40
2017-07-18T03:45:49.319Z,40
2017-07-18T03:48:34.222Z,45
2017-07-18T03:49:49.884Z,45
2017-07-18T03:51:05.387Z,50
2017-07-18T03:52:21.165Z,50
2017-07-18T03:53:36.613Z,50
2017-07-18T03:54:52.121Z,55
2017-07-18T03:56:07.597Z,55
2017-07-18T03:57:23.330Z,60
2017-07-18T03:58:38.793Z,60
2017-07-18T03:59:54.254Z,60
2017-07-18T04:01:09.729Z,65
2017-07-18T04:02:25.450Z,65
2017-07-18T04:03:41.136Z,65
2017-07-18T04:04:56.890Z,70
2017-07-18T04:06:12.515Z,70
2017-07-18T04:07:28.626Z,75
2017-07-18T04:08:44.107Z,75
2017-07-18T04:09:59.888Z,75
2017-07-18T04:11:15.337Z,80
2017-07-18T04:12:31.863Z,80
2017-07-18T04:13:47.304Z,85
2017-07-18T04:15:02.779Z,85
2017-07-18T04:16:18.335Z,85
2017-07-18T04:17:34.319Z,90
2017-07-18T04:18:49.844Z,90
2017-07-18T04:20:05.390Z,95
2017-07-18T04:21:20.432Z,95
2017-07-18T04:22:34.834Z,95
2017-07-18T04:23:50.211Z,100
2017-07-18T04:25:05.813Z,100
2017-07-18T04:26:21.464Z,100
2017-07-18T04:27:37.160Z,105
2017-07-18T04:28:52.601Z,105
2017-07-18T04:30:08.079Z,105
2017-07-18T04:31:23.759Z,105
2017-07-18T04:32:39.521Z,105
2017-07-18T04:33:55.010Z,110
2017-07-18T04:35:09.205Z,110
2017-07-18T04:36:24.745Z,115
2017-07-18T04:37:40.450Z,115
2017-07-18T04:38:55.870Z,120
2017-07-18T04:40:11.352Z,120
2017-07-18T04:41:26.988Z,125
2017-07-18T04:42:42.720Z,125
2017-07-18T04:43:58.386Z,130
2017-07-18T04:45:13.861Z,130
2017-07-18T04:46:29.347Z,135
2017-07-18T04:47:44.993Z,135
2017-07-18T04:48:59.216Z,135
2017-07-18T04:50:15.345Z,140
2017-07-18T04:51:30.830Z,140
2017-07-18T04:52:46.780Z,140
2017-07-18T04:54:02.342Z,150
2017-07-18T04:55:17.823Z,145
2017-07-18T04:56:33.293Z,145
2017-07-18T04:57:49.100Z,145
2017-07-18T04:59:04.154Z,150
2017-07-18T05:00:19.815Z,150
2017-07-18T05:01:35.342Z,150
2017-07-18T05:02:51.084Z,150
2017-07-18T05:04:06.565Z,155
2017-07-18T05:05:22.054Z,150
2017-07-18T05:06:36.377Z,150
2017-07-18T05:07:51.796Z,155
2017-07-18T05:09:07.286Z,155
2017-07-18T05:10:22.801Z,155
2017-07-18T05:11:38.310Z,160
2017-07-18T05:12:54.000Z,160
2017-07-18T05:14:09.479Z,160
2017-07-18T05:15:24.956Z,165
2017-07-18T05:16:40.419Z,165
2017-07-18T05:17:56.160Z,165
2017-07-18T05:19:11.638Z,165
2017-07-18T05:20:25.771Z,170
2017-07-18T05:21:41.261Z,170
2017-07-18T05:22:57.102Z,170
2017-07-18T05:24:12.596Z,170
2017-07-18T05:25:28.052Z,170
2017-07-18T05:26:43.499Z,170
2017-07-18T05:27:59.357Z,175
2017-07-18T05:29:14.884Z,175
2017-07-18T05:30:30.719Z,175
2017-07-18T05:31:46.466Z,180
2017-07-18T05:33:02.159Z,180
2017-07-18T05:34:17.690Z,180
2017-07-18T05:35:33.333Z,185
2017-07-18T05:37:02.489Z,185
2017-07-18T05:38:18.199Z,190
2017-07-18T05:39:33.684Z,190
2017-07-18T05:40:49.093Z,190
2017-07-18T05:42:04.568Z,190
2017-07-18T05:43:19.946Z,190
2017-07-18T05:44:35.158Z,195
2017-07-18T05:45:50.669Z,195
2017-07-18T05:47:06.058Z,195
2017-07-18T05:48:22.005Z,200
2017-07-18T05:49:37.451Z,200
2017-07-18T05:50:51.658Z,205
2017-07-18T05:52:05.873Z,200
2017-07-18T05:53:21.602Z,205
2017-07-18T05:54:37.048Z,205
2017-07-18T05:55:52.525Z,205
2017-07-18T05:57:07.991Z,210
2017-07-18T05:58:23.738Z,205
2017-07-18T05:59:39.221Z,200
2017-07-18T06:00:54.727Z,205
2017-07-18T06:02:10.211Z,210
2017-07-18T06:03:25.970Z,210
2017-07-18T06:04:41.463Z,215
2017-07-18T06:05:56.923Z,215
2017-07-18T06:07:12.404Z,215
2017-07-18T06:08:28.174Z,220
2017-07-18T06:09:43.574Z,225
2017-07-18T06:10:59.424Z,220
2017-07-18T06:12:14.952Z,220
2017-07-18T06:13:29.398Z,220
2017-07-18T06:14:44.837Z,225
2017-07-18T06:16:00.294Z,225
2017-07-18T06:17:15.805Z,225
2017-07-18T06:18:31.545Z,225
2017-07-18T06:19:47.102Z,225
2017-07-18T06:21:02.672Z,225
2017-07-18T06:22:18.361Z,230
2017-07-18T06:23:34.108Z,230
2017-07-18T06:24:49.647Z,230
2017-07-18T06:26:05.143Z,230
2017-07-18T06:27:20.614Z,230
2017-07-18T06:28:35.234Z,235
2017-07-18T06:29:50.773Z,235
2017-07-18T06:31:06.199Z,235
2017-07-18T06:32:21.652Z,235
2017-07-18T06:33:37.391Z,240
2017-07-18T06:34:52.865Z,240
2017-07-18T06:36:08.332Z,245
2017-07-18T06:37:23.455Z,250
2017-07-18T06:38:39.173Z,250
2017-07-18T06:39:54.668Z,250
2017-07-18T06:41:10.147Z,250
2017-07-18T06:42:25.635Z,250
2017-07-18T06:43:41.569Z,250
2017-07-18T06:44:57.039Z,250
2017-07-18T06:46:12.513Z,250
2017-07-18T06:47:28.016Z,250
2017-07-18T06:48:43.793Z,250
2017-07-18T06:49:59.320Z,250
2017-07-18T06:51:15.016Z,250
2017-07-18T06:52:30.520Z,245
2017-07-18T06:53:46.251Z,240
2017-07-18T06:55:01.739Z,245
2017-07-18T06:56:17.222Z,250
2017-07-18T06:57:32.291Z,250
2017-07-18T06:58:47.987Z,250
2017-07-18T07:00:03.431Z,250
2017-07-18T07:01:18.948Z,255
2017-07-18T07:02:33.109Z,255
2017-07-18T07:03:48.836Z,260
2017-07-18T07:05:04.294Z,260
2017-07-18T07:06:18.526Z,260
2017-07-18T07:07:34.038Z,260
2017-07-18T07:08:49.757Z,260
2017-07-18T07:10:05.200Z,265
2017-07-18T07:11:21.202Z,270
2017-07-18T07:12:36.294Z,270
2017-07-18T07:13:51.958Z,275
2017-07-18T07:15:07.874Z,275
2017-07-18T07:16:23.327Z,265
2017-07-18T07:17:38.760Z,280
2017-07-18T07:18:54.633Z,285
2017-07-18T07:20:10.053Z,290
2017-07-18T07:21:25.532Z,295
2017-07-18T07:22:41.027Z,305
2017-07-18T07:23:56.745Z,310
2017-07-18T07:25:12.252Z,310
2017-07-18T07:26:27.693Z,310
2017-07-18T07:27:43.179Z,315
2017-07-18T07:28:59.063Z,310
2017-07-18T07:30:14.504Z,310
2017-07-18T07:31:30.040Z,305
2017-07-18T07:32:45.536Z,295
2017-07-18T07:34:01.419Z,285
2017-07-18T07:35:16.877Z,290
2017-07-18T07:36:32.551Z,295
2017-07-18T07:37:48.037Z,305
2017-07-18T07:39:03.746Z,305
2017-07-18T07:40:19.207Z,310
2017-07-18T07:42:05.545Z,310
2017-07-18T07:43:21.035Z,310
2017-07-18T07:44:36.761Z,310
2017-07-18T07:45:52.245Z,310
2017-07-18T07:47:07.532Z,310
2017-07-18T07:48:21.644Z,310
2017-07-18T07:49:37.385Z,315
2017-07-18T07:50:52.832Z,315
2017-07-18T07:52:08.285Z,320
2017-07-18T07:53:23.750Z,320
2017-07-18T07:54:39.483Z,325
2017-07-18T07:55:55.134Z,325
2017-07-18T07:57:10.293Z,330
2017-07-18T07:58:25.784Z,335
2017-07-18T07:59:41.445Z,340
2017-07-18T08:00:55.594Z,345
2017-07-18T08:02:24.653Z,350
2017-07-18T08:03:40.344Z,355
2017-07-18T08:04:56.048Z,355
2017-07-18T08:06:11.491Z,360
2017-07-18T08:07:26.968Z,360
2017-07-18T08:08:42.687Z,345
2017-07-18T08:09:58.412Z,360
2017-07-18T08:11:13.890Z,375
2017-07-18T08:12:29.388Z,380
2017-07-18T08:13:45.062Z,385
2017-07-18T08:15:00.845Z,385
2017-07-18T08:16:16.336Z,390
2017-07-18T08:17:31.810Z,395
2017-07-18T08:18:47.267Z,400
2017-07-18T08:20:03.135Z,395
2017-07-18T08:21:18.594Z,400
2017-07-18T08:22:34.099Z,405
2017-07-18T08:23:50.187Z,405
2017-07-18T08:25:06.159Z,405
2017-07-18T08:26:21.619Z,405
2017-07-18T08:27:37.111Z,405
2017-07-18T08:28:52.612Z,415
2017-07-18T08:30:08.370Z,415
2017-07-18T08:31:23.864Z,410
2017-07-18T08:32:39.323Z,415
2017-07-18T08:33:53.456Z,420
2017-07-18T08:35:09.538Z,415
2017-07-18T08:36:23.718Z,415
2017-07-18T08:37:39.293Z,420
2017-07-18T08:38:54.808Z,430
2017-07-18T08:40:10.499Z,445
2017-07-18T08:41:25.988Z,470
2017-07-18T08:42:41.436Z,835
2017-07-18T08:43:56.929Z,1845
2017-07-18T08:45:12.611Z,2525
2017-07-18T08:46:27.958Z,2730
2017-07-18T08:47:43.386Z,2785
2017-07-18T08:48:58.892Z,2695
2017-07-18T08:50:14.627Z,2690
2017-07-18T08:51:30.207Z,2865
2017-07-18T08:52:45.800Z,3070
2017-07-18T08:53:59.913Z,2955
2017-07-18T08:55:15.351Z,2640
2017-07-18T08:56:30.829Z,2345
2017-07-18T08:57:46.294Z,2305
2017-07-18T08:58:59.163Z,2705
2017-07-18T09:00:14.908Z,3155
2017-07-18T09:01:30.013Z,3400
2017-07-18T09:02:45.440Z,3295
2017-07-18T09:04:00.905Z,3120
2017-07-18T09:05:15.399Z,3130
2017-07-18T09:06:30.860Z,3370
2017-07-18T09:07:46.440Z,3730
2017-07-18T09:09:01.913Z,3480
2017-07-18T09:10:17.675Z,3275
2017-07-18T09:11:33.159Z,3145
2017-07-18T09:12:48.616Z,2985
2017-07-18T09:14:04.081Z,2940
2017-07-18T09:15:19.800Z,3190
2017-07-18T09:16:35.232Z,3365
2017-07-18T09:17:50.694Z,3485
2017-07-18T09:19:06.414Z,3425
2017-07-18T09:20:22.196Z,3410
2017-07-18T09:21:37.660Z,3560
2017-07-18T09:22:53.152Z,3685
2017-07-18T09:24:08.661Z,3595
2017-07-18T09:25:24.463Z,3755
2017-07-18T09:26:39.978Z,3540
2017-07-18T09:27:55.433Z,3330
2017-07-18T09:29:10.553Z,3400
2017-07-18T09:30:26.342Z,3160
2017-07-18T09:31:41.843Z,3380
2017-07-18T09:32:57.364Z,3560
2017-07-18T09:34:12.797Z,3540
2017-07-18T09:35:27.241Z,3320
2017-07-18T09:36:42.891Z,3185
2017-07-18T09:37:58.563Z,3180
2017-07-18T09:39:14.099Z,3265
2017-07-18T09:40:29.798Z,3380
2017-07-18T09:41:45.256Z,3305
2017-07-18T09:43:00.916Z,3265
2017-07-18T09:44:16.390Z,3155
2017-07-18T09:45:31.003Z,3110
2017-07-18T09:46:46.164Z,3360
2017-07-18T09:48:01.792Z,3325
2017-07-18T09:49:17.287Z,3195
2017-07-18T09:50:33.048Z,3215
2017-07-18T09:51:47.207Z,3005
2017-07-18T09:53:02.676Z,2625
2017-07-18T09:54:17.056Z,2435
2017-07-18T09:55:32.801Z,875
2017-07-18T09:56:48.334Z,710
2017-07-18T09:58:03.495Z,730
2017-07-18T09:59:17.668Z,1550
2017-07-18T10:01:46.346Z,3750
2017-07-18T10:03:00.586Z,3185
2017-07-18T10:04:16.057Z,3360
2017-07-18T10:05:30.545Z,995
2017-07-18T10:06:46.053Z,1235
2017-07-18T10:08:01.549Z,985
2017-07-18T10:09:17.055Z,1185
2017-07-18T10:10:32.926Z,1535
2017-07-18T10:11:48.352Z,4085
2017-07-18T10:13:03.886Z,3355
2017-07-18T10:14:19.576Z,2965
2017-07-18T10:15:35.294Z,3115
2017-07-18T10:16:50.878Z,3650
2017-07-18T10:18:06.377Z,3775
2017-07-18T10:19:21.831Z,3945
2017-07-18T10:20:37.640Z,4150
2017-07-18T10:21:51.818Z,4685
2017-07-18T10:23:07.344Z,5000
2017-07-18T10:24:23.072Z,4995
2017-07-18T10:25:39.043Z,4715
2017-07-18T10:26:53.260Z,4565
2017-07-18T10:28:07.774Z,4500
2017-07-18T10:29:23.291Z,4640
2017-07-18T10:30:39.019Z,4895
2017-07-18T10:32:08.148Z,4660
2017-07-18T10:33:22.311Z,4710
2017-07-18T10:34:37.854Z,4540
2017-07-18T10:35:53.620Z,4390
2017-07-18T10:37:09.097Z,4305
2017-07-18T10:38:24.624Z,4550
2017-07-18T10:39:40.156Z,4660
2017-07-18T10:40:55.951Z,4645
2017-07-18T10:42:11.645Z,4605
2017-07-18T10:43:27.177Z,4450
2017-07-18T10:44:42.658Z,4345
2017-07-18T10:45:58.398Z,4245
2017-07-18T10:47:13.902Z,4215
2017-07-18T10:48:29.410Z,3770
2017-07-18T10:49:44.903Z,4355
2017-07-18T10:51:00.663Z,4790
2017-07-18T10:52:15.794Z,5195
2017-07-18T10:53:31.283Z,5040
2017-07-18T10:54:46.794Z,5275
2017-07-18T10:56:02.522Z,5005
2017-07-18T10:57:16.694Z,4565
2017-07-18T10:58:32.401Z,4325
2017-07-18T10:59:47.901Z,3950
2017-07-18T11:01:03.597Z,3805
2017-07-18T11:02:17.785Z,3940
2017-07-18T11:03:33.272Z,4300
2017-07-18T11:04:48.789Z,4455
2017-07-18T11:06:04.540Z,4495
2017-07-18T11:07:33.605Z,4445
2017-07-18T11:08:48.977Z,4810
2017-07-18T11:10:04.642Z,4400
2017-07-18T11:11:20.391Z,4465
2017-07-18T11:12:35.859Z,4490
2017-07-18T11:13:51.370Z,4535
2017-07-18T11:15:06.895Z,4435
2017-07-18T11:16:22.612Z,4335
2017-07-18T11:17:38.105Z,4190
2017-07-18T11:18:53.853Z,4055
2017-07-18T11:20:08.212Z,4160
2017-07-18T11:21:23.969Z,4380
2017-07-18T11:22:39.453Z,4700
2017-07-18T11:23:55.395Z,4870
2017-07-18T11:25:10.902Z,4965
2017-07-18T11:26:26.639Z,4980
2017-07-18T11:27:42.134Z,4820
2017-07-18T11:28:57.619Z,4600
2017-07-18T11:30:13.116Z,4420
2017-07-18T11:31:27.505Z,4340
2017-07-18T11:32:43.239Z,4345
2017-07-18T11:33:58.738Z,4270
2017-07-18T11:35:13.950Z,4120
2017-07-18T11:36:29.733Z,3965
2017-07-18T11:37:45.225Z,3915
2017-07-18T11:39:00.725Z,3955
2017-07-18T11:40:16.182Z,4160
2017-07-18T11:41:30.670Z,4480
2017-07-18T11:42:46.121Z,4840
2017-07-18T11:44:01.618Z,5075
2017-07-18T11:45:17.100Z,5110
2017-07-18T11:46:33.030Z,4940
2017-07-18T11:47:48.532Z,4685
2017-07-18T11:49:04.049Z,4500
2017-07-18T11:50:19.682Z,4415
2017-07-18T11:51:35.490Z,4505
2017-07-18T11:52:51.235Z,4720
2017-07-18T11:54:06.741Z,5010
2017-07-18T11:55:22.254Z,5155
2017-07-18T11:56:38.047Z,5090
2017-07-18T11:57:53.931Z,4890
2017-07-18T11:59:09.438Z,4605
2017-07-18T12:00:24.978Z,4265
2017-07-18T12:01:40.738Z,4020
2017-07-18T12:02:56.270Z,3990
2017-07-18T12:04:11.767Z,4085
2017-07-18T12:05:27.499Z,4230
2017-07-18T12:06:43.274Z,4205
2017-07-18T12:07:58.962Z,4160
2017-07-18T12:09:14.454Z,4080
2017-07-18T12:10:29.957Z,3940
2017-07-18T12:11:45.821Z,3960
2017-07-18T12:13:01.331Z,4205
2017-07-18T12:14:16.887Z,4325
2017-07-18T12:15:31.079Z,4340
2017-07-18T12:16:46.835Z,4180
2017-07-18T12:18:02.530Z,3940
2017-07-18T12:19:18.082Z,3735
2017-07-18T12:20:33.615Z,3710
2017-07-18T12:21:49.479Z,3805
2017-07-18T12:23:05.048Z,3915
2017-07-18T12:24:20.530Z,3995
2017-07-18T12:25:34.731Z,4050
2017-07-18T12:26:50.474Z,4040
2017-07-18T12:28:19.635Z,3950
2017-07-18T12:29:35.111Z,3960
2017-07-18T12:30:50.619Z,3990
2017-07-18T12:32:06.007Z,4090
2017-07-18T12:33:21.540Z,4225
2017-07-18T12:34:35.684Z,4365
2017-07-18T12:35:51.222Z,4640
2017-07-18T12:37:06.795Z,4635
2017-07-18T12:38:22.281Z,4435
2017-07-18T12:39:37.779Z,4070
2017-07-18T12:40:53.302Z,3705
2017-07-18T12:42:09.088Z,3495
2017-07-18T12:43:24.536Z,3595
2017-07-18T12:44:40.041Z,3815
2017-07-18T12:45:55.542Z,4015
2017-07-18T12:47:11.315Z,4055
2017-07-18T12:48:27.014Z,3955
2017-07-18T12:49:42.661Z,3995
2017-07-18T12:50:58.147Z,3900
2017-07-18T12:52:13.896Z,4395
2017-07-18T12:53:29.411Z,3690
2017-07-18T12:54:44.608Z,2675
2017-07-18T12:56:00.288Z,2695
2017-07-18T12:57:16.046Z,3025
2017-07-18T12:58:31.556Z,3030
2017-07-18T12:59:47.080Z,3850
2017-07-18T13:01:02.559Z,2630
2017-07-18T13:02:17.975Z,3455
2017-07-18T13:03:32.391Z,3920
2017-07-18T13:04:47.954Z,3225
2017-07-18T13:06:03.474Z,2855
2017-07-18T13:07:18.919Z,4205
2017-07-18T13:08:34.137Z,3435
2017-07-18T13:09:49.906Z,2675
2017-07-18T13:11:05.380Z,2745
2017-07-18T13:12:21.093Z,2550
2017-07-18T13:13:35.368Z,2595
2017-07-18T13:14:50.855Z,2675
2017-07-18T13:16:06.317Z,2890
2017-07-18T13:17:22.271Z,3255
2017-07-18T13:18:37.761Z,3710
2017-07-18T13:19:50.737Z,2310
2017-07-18T13:21:06.192Z,3940
2017-07-18T13:22:21.961Z,3090
2017-07-18T13:23:37.421Z,2280
2017-07-18T13:24:52.904Z,2785
2017-07-18T13:26:08.429Z,2755
2017-07-18T13:27:37.765Z,4085
2017-07-18T13:28:53.197Z,2435
2017-07-18T13:30:08.816Z,3695
2017-07-18T13:31:24.410Z,4060
2017-07-18T13:32:38.818Z,3565
2017-07-18T13:33:54.320Z,3290
2017-07-18T13:35:09.825Z,3330
2017-07-18T13:36:25.297Z,3560
2017-07-18T13:37:41.063Z,3735
2017-07-18T13:38:56.535Z,3800
2017-07-18T13:40:12.124Z,3685
2017-07-18T13:41:27.276Z,3445
2017-07-18T13:42:43.221Z,3455
2017-07-18T13:43:58.975Z,3645
2017-07-18T13:45:14.378Z,3810
2017-07-18T13:46:29.901Z,3745
2017-07-18T13:47:45.605Z,3460
2017-07-18T13:49:01.131Z,3155
2017-07-18T13:50:16.875Z,3030
2017-07-18T13:51:32.385Z,3185
2017-07-18T13:52:48.064Z,3380
2017-07-18T13:54:02.262Z,3425
2017-07-18T13:55:18.131Z,3235
2017-07-18T13:56:33.711Z,2975
2017-07-18T13:57:49.479Z,2790
2017-07-18T13:59:05.006Z,2865
2017-07-18T14:00:20.525Z,3115
2017-07-18T14:01:34.700Z,3315
2017-07-18T14:02:50.452Z,3420
2017-07-18T14:04:05.929Z,3465
2017-07-18T14:05:21.454Z,3310
2017-07-18T14:06:36.985Z,3010
2017-07-18T14:07:52.745Z,2720
2017-07-18T14:09:08.262Z,2580
2017-07-18T14:10:23.955Z,2685
2017-07-18T14:11:40.075Z,2975
2017-07-18T14:12:55.807Z,3090
2017-07-18T14:14:11.391Z,3050
2017-07-18T14:15:26.980Z,2955
2017-07-18T14:16:42.551Z,2960
2017-07-18T14:17:58.311Z,3115
2017-07-18T14:19:13.783Z,3155
2017-07-18T14:20:29.256Z,3105
2017-07-18T14:21:44.669Z,2910
2017-07-18T14:23:00.590Z,2750
2017-07-18T14:24:16.111Z,2695
2017-07-18T14:25:31.606Z,2670
2017-07-18T14:26:45.769Z,2770
2017-07-18T14:28:01.481Z,3080
2017-07-18T14:29:17.096Z,3095
2017-07-18T14:30:32.596Z,2835
2017-07-18T14:31:48.127Z,2515
2017-07-18T14:33:02.568Z,2375
2017-07-18T14:34:18.042Z,2455
2017-07-18T14:35:33.548Z,2630
2017-07-18T14:36:49.045Z,2770
2017-07-18T14:38:04.764Z,2900
2017-07-18T14:39:20.345Z,3045
2017-07-18T14:40:35.836Z,3150
2017-07-18T14:41:51.355Z,3165
2017-07-18T14:43:07.095Z,3005
2017-07-18T14:44:22.581Z,2730
2017-07-18T14:45:38.287Z,2455
2017-07-18T14:46:53.790Z,2365
2017-07-18T14:48:09.535Z,2380
2017-07-18T14:49:25.193Z,2375
2017-07-18T14:50:40.710Z,2335
2017-07-18T14:51:56.137Z,2200
2017-07-18T14:53:12.170Z,2050
2017-07-18T14:54:27.686Z,1930
2017-07-18T14:55:42.879Z,2035
2017-07-18T14:56:58.479Z,2265
2017-07-18T14:58:14.309Z,2405
2017-07-18T14:59:29.781Z,2290
2017-07-18T15:00:45.672Z,2040
2017-07-18T15:02:01.190Z,1980
2017-07-18T15:03:16.895Z,2045
2017-07-18T15:04:31.120Z,2150
2017-07-18T15:05:46.592Z,2235
2017-07-18T15:07:02.112Z,2330
2017-07-18T15:08:17.957Z,2300
2017-07-18T15:09:33.474Z,2190
2017-07-18T15:10:49.011Z,2245
2017-07-18T15:12:03.310Z,2380
2017-07-18T15:13:19.158Z,2460
2017-07-18T15:14:34.795Z,2270
2017-07-18T15:15:48.954Z,1940
2017-07-18T15:17:04.401Z,1280
2017-07-18T15:18:20.186Z,660
2017-07-18T15:19:35.665Z,515
2017-07-18T15:20:51.176Z,490
2017-07-18T15:22:07.093Z,465
2017-07-18T15:23:22.531Z,460
2017-07-18T15:24:38.117Z,440
2017-07-18T15:25:53.582Z,415
2017-07-18T15:27:09.097Z,410
2017-07-18T15:28:24.831Z,410
2017-07-18T15:29:40.313Z,400
2017-07-18T15:30:55.867Z,395
2017-07-18T15:32:11.361Z,390
2017-07-18T15:33:27.143Z,390
2017-07-18T15:34:43.229Z,335
2017-07-18T15:35:57.441Z,365
2017-07-18T15:37:12.956Z,355
2017-07-18T15:38:28.488Z,360
2017-07-18T15:39:44.052Z,365
2017-07-18T15:40:59.563Z,360
2017-07-18T15:42:15.346Z,360
2017-07-18T15:43:30.893Z,355
2017-07-18T15:44:46.838Z,355
2017-07-18T15:46:02.425Z,350
2017-07-18T15:47:17.985Z,345
2017-07-18T15:48:33.449Z,345
2017-07-18T15:49:47.953Z,340
2017-07-18T15:51:03.451Z,335
2017-07-18T15:52:19.082Z,335
2017-07-18T15:53:34.599Z,335
2017-07-18T15:54:50.340Z,335
2017-07-18T15:56:05.804Z,330
2017-07-18T15:57:21.487Z,330
2017-07-18T15:58:36.941Z,325
2017-07-18T15:59:52.691Z,320
2017-07-18T16:01:08.185Z,320
2017-07-18T16:02:23.694Z,320
2017-07-18T16:03:39.134Z,315
2017-07-18T16:04:53.216Z,310
2017-07-18T16:06:08.397Z,305
2017-07-18T16:07:22.586Z,300
2017-07-18T16:08:38.054Z,295
2017-07-18T16:09:53.867Z,295
2017-07-18T16:11:09.543Z,295
2017-07-18T16:12:25.055Z,290
2017-07-18T16:13:40.553Z,285
2017-07-18T16:14:56.436Z,285
2017-07-18T16:16:11.974Z,280
2017-07-18T16:17:28.105Z,280
2017-07-18T16:18:46.698Z,280
2017-07-18T16:20:05.400Z,280
2017-07-18T16:21:22.234Z,280
2017-07-18T16:22:40.157Z,275
2017-07-18T16:23:58.085Z,275
2017-07-18T16:25:16.439Z,275
2017-07-18T16:26:34.160Z,270
2017-07-18T16:27:52.224Z,270
2017-07-18T16:29:10.469Z,265
2017-07-18T16:30:28.757Z,265
2017-07-18T16:31:46.627Z,260
2017-07-18T16:33:04.105Z,255
2017-07-18T16:34:22.528Z,250
2017-07-18T16:35:40.440Z,250
2017-07-18T16:36:58.302Z,240
2017-07-18T16:38:16.219Z,235
2017-07-18T16:39:33.875Z,240
2017-07-18T16:40:51.863Z,235
2017-07-18T16:42:09.489Z,225
2017-07-18T16:43:26.995Z,220
2017-07-18T16:44:44.443Z,215
2017-07-18T16:46:02.287Z,210
2017-07-18T16:47:19.838Z,210
2017-07-18T16:48:35.369Z,205
2017-07-18T16:49:51.206Z,205
2017-07-18T16:51:06.903Z,205
2017-07-18T16:52:22.504Z,200
2017-07-18T16:53:38.037Z,195
2017-07-18T16:54:53.624Z,195
2017-07-18T16:56:09.363Z,190
2017-07-18T16:57:38.448Z,190
2017-07-18T16:58:54.226Z,185
2017-07-18T17:00:09.787Z,185
2017-07-18T17:01:25.594Z,185
2017-07-18T17:02:41.030Z,180
2017-07-18T17:03:55.371Z,180
2017-07-18T17:05:11.012Z,180
2017-07-18T17:06:26.857Z,175
2017-07-18T17:07:42.532Z,175
2017-07-18T17:08:58.008Z,175
2017-07-18T17:10:12.642Z,170
2017-07-18T17:11:28.463Z,170
2017-07-18T17:12:43.950Z,170
2017-07-18T17:13:59.717Z,165
2017-07-18T17:15:15.585Z,165
2017-07-18T17:16:31.782Z,165
2017-07-18T17:17:47.312Z,160
2017-07-18T17:19:02.821Z,160
2017-07-18T17:20:18.298Z,160
2017-07-18T17:21:34.023Z,155
2017-07-18T17:22:49.541Z,160
2017-07-18T17:24:18.518Z,150
2017-07-18T17:25:34.301Z,145
2017-07-18T17:26:50.166Z,135
2017-07-18T17:28:05.643Z,140